sensor_id;sensor_type;location;lat;lon;timestamp;temperature;humidity
37806;DHT22;25082;50.870;0.022;2023-02-28T00:00:11;18.30;58.70
37806;DHT22;25082;50.870;0.022;2023-02-28T00:02:42;18.30;58.60
37806;DHT22;25082;50.870;0.022;2023-02-28T00:05:09;18.20;58.60
37806;DHT22;25082;50.870;0.022;2023-02-28T00:07:35;18.20;58.50
37806;DHT22;25082;50.870;0.022;2023-02-28T00:10:02;18.20;58.50
37806;DHT22;25082;50.870;0.022;2023-02-28T00:12:28;18.20;58.50
37806;DHT22;25082;50.870;0.022;2023-02-28T00:14:54;18.20;58.50
37806;DHT22;25082;50.870;0.022;2023-02-28T00:17:19;18.20;58.50
37806;DHT22;25082;50.870;0.022;2023-02-28T00:19:50;18.20;58.40
37806;DHT22;25082;50.870;0.022;2023-02-28T00:22:18;18.10;58.40
37806;DHT22;25082;50.870;0.022;2023-02-28T00:24:44;18.10;58.40
37806;DHT22;25082;50.870;0.022;2023-02-28T00:27:10;18.10;58.30
37806;DHT22;25082;50.870;0.022;2023-02-28T00:29:38;18.10;58.30
37806;DHT22;25082;50.870;0.022;2023-02-28T00:32:05;18.10;58.20
37806;DHT22;25082;50.870;0.022;2023-02-28T00:34:31;18.00;58.20
37806;DHT22;25082;50.870;0.022;2023-02-28T00:37:06;18.00;58.70
37806;DHT22;25082;50.870;0.022;2023-02-28T00:39:38;18.00;58.20
37806;DHT22;25082;50.870;0.022;2023-02-28T00:42:05;18.00;58.20
37806;DHT22;25082;50.870;0.022;2023-02-28T00:44:31;18.00;58.10
37806;DHT22;25082;50.870;0.022;2023-02-28T00:46:58;18.00;58.20
37806;DHT22;25082;50.870;0.022;2023-02-28T00:49:25;18.00;58.20
37806;DHT22;25082;50.870;0.022;2023-02-28T00:51:51;18.00;58.20
37806;DHT22;25082;50.870;0.022;2023-02-28T00:54:17;17.90;58.10
37806;DHT22;25082;50.870;0.022;2023-02-28T00:56:43;17.90;58.00
37806;DHT22;25082;50.870;0.022;2023-02-28T00:59:08;17.90;57.90
37806;DHT22;25082;50.870;0.022;2023-02-28T01:01:34;17.90;57.90
37806;DHT22;25082;50.870;0.022;2023-02-28T01:04:00;17.90;57.90
37806;DHT22;25082;50.870;0.022;2023-02-28T01:06:26;17.90;57.90
37806;DHT22;25082;50.870;0.022;2023-02-28T01:08:52;17.90;57.90
37806;DHT22;25082;50.870;0.022;2023-02-28T01:11:18;17.90;57.80
37806;DHT22;25082;50.870;0.022;2023-02-28T01:13:45;17.80;57.70
37806;DHT22;25082;50.870;0.022;2023-02-28T01:16:12;17.80;57.80
37806;DHT22;25082;50.870;0.022;2023-02-28T01:18:38;17.80;57.70
37806;DHT22;25082;50.870;0.022;2023-02-28T01:21:10;17.80;57.70
37806;DHT22;25082;50.870;0.022;2023-02-28T01:23:35;17.80;57.70
37806;DHT22;25082;50.870;0.022;2023-02-28T01:26:13;17.80;57.70
37806;DHT22;25082;50.870;0.022;2023-02-28T01:28:38;17.70;57.60
37806;DHT22;25082;50.870;0.022;2023-02-28T01:31:04;17.70;57.60
37806;DHT22;25082;50.870;0.022;2023-02-28T01:33:31;17.70;57.60
37806;DHT22;25082;50.870;0.022;2023-02-28T01:36:01;17.70;57.60
37806;DHT22;25082;50.870;0.022;2023-02-28T01:38:27;17.70;57.60
37806;DHT22;25082;50.870;0.022;2023-02-28T01:40:53;17.70;57.60
37806;DHT22;25082;50.870;0.022;2023-02-28T01:45:54;17.70;57.50
37806;DHT22;25082;50.870;0.022;2023-02-28T01:48:27;17.60;57.50
37806;DHT22;25082;50.870;0.022;2023-02-28T01:50:56;17.60;57.50
37806;DHT22;25082;50.870;0.022;2023-02-28T01:53:31;17.60;57.60
37806;DHT22;25082;50.870;0.022;2023-02-28T01:55:57;17.60;57.60
37806;DHT22;25082;50.870;0.022;2023-02-28T01:58:23;17.60;57.60
37806;DHT22;25082;50.870;0.022;2023-02-28T02:00:49;17.60;58.10
37806;DHT22;25082;50.870;0.022;2023-02-28T02:03:18;17.60;57.60
37806;DHT22;25082;50.870;0.022;2023-02-28T02:05:45;17.60;57.60
37806;DHT22;25082;50.870;0.022;2023-02-28T02:08:17;17.60;57.60
37806;DHT22;25082;50.870;0.022;2023-02-28T02:10:46;17.50;57.50
37806;DHT22;25082;50.870;0.022;2023-02-28T02:38:52;17.30;57.20
37806;DHT22;25082;50.870;0.022;2023-02-28T02:46:36;17.30;57.20
37806;DHT22;25082;50.870;0.022;2023-02-28T02:49:06;17.30;57.20
37806;DHT22;25082;50.870;0.022;2023-02-28T02:51:35;17.30;57.10
37806;DHT22;25082;50.870;0.022;2023-02-28T02:56:33;17.30;57.00
37806;DHT22;25082;50.870;0.022;2023-02-28T02:59:03;17.20;57.00
37806;DHT22;25082;50.870;0.022;2023-02-28T03:01:31;17.20;57.00
37806;DHT22;25082;50.870;0.022;2023-02-28T03:04:05;17.20;57.00
37806;DHT22;25082;50.870;0.022;2023-02-28T03:06:32;17.20;57.00
37806;DHT22;25082;50.870;0.022;2023-02-28T03:08:57;17.20;57.00
37806;DHT22;25082;50.870;0.022;2023-02-28T03:11:25;17.20;57.00
37806;DHT22;25082;50.870;0.022;2023-02-28T03:14:39;17.20;57.00
37806;DHT22;25082;50.870;0.022;2023-02-28T03:28:32;17.10;57.00
37806;DHT22;25082;50.870;0.022;2023-02-28T03:31:10;17.10;57.00
37806;DHT22;25082;50.870;0.022;2023-02-28T03:33:46;17.10;56.80
37806;DHT22;25082;50.870;0.022;2023-02-28T03:36:23;17.10;57.20
37806;DHT22;25082;50.870;0.022;2023-02-28T03:39:01;17.00;56.70
37806;DHT22;25082;50.870;0.022;2023-02-28T03:41:51;17.00;56.80
37806;DHT22;25082;50.870;0.022;2023-02-28T03:44:41;17.00;56.80
37806;DHT22;25082;50.870;0.022;2023-02-28T03:47:22;17.00;56.80
37806;DHT22;25082;50.870;0.022;2023-02-28T03:49:54;17.00;56.80
37806;DHT22;25082;50.870;0.022;2023-02-28T03:52:27;17.00;56.80
37806;DHT22;25082;50.870;0.022;2023-02-28T03:55:00;17.00;56.80
37806;DHT22;25082;50.870;0.022;2023-02-28T04:00:24;16.90;56.70
37806;DHT22;25082;50.870;0.022;2023-02-28T04:02:54;16.90;56.70
37806;DHT22;25082;50.870;0.022;2023-02-28T04:05:21;16.90;56.70
37806;DHT22;25082;50.870;0.022;2023-02-28T04:07:47;16.90;56.80
37806;DHT22;25082;50.870;0.022;2023-02-28T04:10:15;16.90;56.70
37806;DHT22;25082;50.870;0.022;2023-02-28T04:12:41;16.90;56.80
37806;DHT22;25082;50.870;0.022;2023-02-28T04:15:07;16.90;56.70
37806;DHT22;25082;50.870;0.022;2023-02-28T04:17:33;16.90;56.70
37806;DHT22;25082;50.870;0.022;2023-02-28T04:19:58;16.80;56.60
37806;DHT22;25082;50.870;0.022;2023-02-28T04:22:24;16.80;56.70
37806;DHT22;25082;50.870;0.022;2023-02-28T04:24:53;16.80;56.60
37806;DHT22;25082;50.870;0.022;2023-02-28T04:27:21;16.80;56.50
37806;DHT22;25082;50.870;0.022;2023-02-28T04:29:47;16.80;56.60
37806;DHT22;25082;50.870;0.022;2023-02-28T04:32:13;16.80;56.50
37806;DHT22;25082;50.870;0.022;2023-02-28T04:34:39;16.80;56.50
37806;DHT22;25082;50.870;0.022;2023-02-28T04:37:05;16.80;56.50
37806;DHT22;25082;50.870;0.022;2023-02-28T04:39:35;16.80;56.40
37806;DHT22;25082;50.870;0.022;2023-02-28T04:42:01;16.80;56.50
37806;DHT22;25082;50.870;0.022;2023-02-28T04:44:27;16.80;56.50
37806;DHT22;25082;50.870;0.022;2023-02-28T04:46:52;16.70;56.40
37806;DHT22;25082;50.870;0.022;2023-02-28T04:49:18;16.70;56.50
37806;DHT22;25082;50.870;0.022;2023-02-28T04:51:44;16.70;56.60
37806;DHT22;25082;50.870;0.022;2023-02-28T04:54:09;16.70;56.50
37806;DHT22;25082;50.870;0.022;2023-02-28T04:56:35;16.70;56.50
37806;DHT22;25082;50.870;0.022;2023-02-28T04:59:01;16.70;56.60
37806;DHT22;25082;50.870;0.022;2023-02-28T05:01:29;16.70;56.50
37806;DHT22;25082;50.870;0.022;2023-02-28T05:03:56;16.70;56.50
37806;DHT22;25082;50.870;0.022;2023-02-28T05:06:24;16.60;56.40
37806;DHT22;25082;50.870;0.022;2023-02-28T05:08:51;16.60;56.40
37806;DHT22;25082;50.870;0.022;2023-02-28T05:11:23;16.60;56.30
37806;DHT22;25082;50.870;0.022;2023-02-28T05:13:50;16.60;56.40
37806;DHT22;25082;50.870;0.022;2023-02-28T05:16:16;16.60;56.40
37806;DHT22;25082;50.870;0.022;2023-02-28T05:18:42;16.60;56.50
37806;DHT22;25082;50.870;0.022;2023-02-28T05:21:33;16.60;56.50
37806;DHT22;25082;50.870;0.022;2023-02-28T05:24:01;16.60;56.40
37806;DHT22;25082;50.870;0.022;2023-02-28T05:26:28;16.60;56.40
37806;DHT22;25082;50.870;0.022;2023-02-28T05:28:54;16.50;56.40
37806;DHT22;25082;50.870;0.022;2023-02-28T05:31:20;16.50;56.30
37806;DHT22;25082;50.870;0.022;2023-02-28T05:33:46;16.50;56.30
37806;DHT22;25082;50.870;0.022;2023-02-28T05:36:12;16.50;56.40
37806;DHT22;25082;50.870;0.022;2023-02-28T05:38:37;16.50;56.40
37806;DHT22;25082;50.870;0.022;2023-02-28T05:41:07;16.50;56.30
37806;DHT22;25082;50.870;0.022;2023-02-28T05:43:34;16.50;56.40
37806;DHT22;25082;50.870;0.022;2023-02-28T05:46:04;16.50;56.40
37806;DHT22;25082;50.870;0.022;2023-02-28T05:48:30;16.50;56.30
37806;DHT22;25082;50.870;0.022;2023-02-28T05:50:57;16.40;56.30
37806;DHT22;25082;50.870;0.022;2023-02-28T05:53:23;16.40;56.30
37806;DHT22;25082;50.870;0.022;2023-02-28T05:55:49;16.50;56.30
37806;DHT22;25082;50.870;0.022;2023-02-28T05:58:14;16.40;56.40
37806;DHT22;25082;50.870;0.022;2023-02-28T06:00:40;16.40;57.00
37806;DHT22;25082;50.870;0.022;2023-02-28T06:03:06;16.40;56.30
37806;DHT22;25082;50.870;0.022;2023-02-28T06:05:31;16.40;56.30
37806;DHT22;25082;50.870;0.022;2023-02-28T06:07:58;16.40;56.50
37806;DHT22;25082;50.870;0.022;2023-02-28T06:10:24;16.40;56.30
37806;DHT22;25082;50.870;0.022;2023-02-28T06:12:49;16.40;56.40
37806;DHT22;25082;50.870;0.022;2023-02-28T06:15:16;16.40;56.40
37806;DHT22;25082;50.870;0.022;2023-02-28T06:17:42;16.40;56.40
37806;DHT22;25082;50.870;0.022;2023-02-28T06:20:09;16.40;56.50
37806;DHT22;25082;50.870;0.022;2023-02-28T06:22:36;16.30;56.30
37806;DHT22;25082;50.870;0.022;2023-02-28T06:25:03;16.30;56.40
37806;DHT22;25082;50.870;0.022;2023-02-28T06:27:31;16.30;56.40
37806;DHT22;25082;50.870;0.022;2023-02-28T06:29:56;16.30;56.30
37806;DHT22;25082;50.870;0.022;2023-02-28T06:32:22;16.30;56.40
37806;DHT22;25082;50.870;0.022;2023-02-28T06:34:48;16.30;56.30
37806;DHT22;25082;50.870;0.022;2023-02-28T06:37:14;16.30;56.40
37806;DHT22;25082;50.870;0.022;2023-02-28T06:39:40;16.30;56.40
37806;DHT22;25082;50.870;0.022;2023-02-28T06:42:05;16.20;56.30
37806;DHT22;25082;50.870;0.022;2023-02-28T06:44:31;16.30;56.40
37806;DHT22;25082;50.870;0.022;2023-02-28T06:47:02;16.20;56.30
37806;DHT22;25082;50.870;0.022;2023-02-28T06:49:32;16.20;56.30
37806;DHT22;25082;50.870;0.022;2023-02-28T06:51:58;16.20;56.30
37806;DHT22;25082;50.870;0.022;2023-02-28T06:54:24;16.20;56.30
37806;DHT22;25082;50.870;0.022;2023-02-28T06:56:50;16.20;56.20
37806;DHT22;25082;50.870;0.022;2023-02-28T06:59:16;16.20;56.40
37806;DHT22;25082;50.870;0.022;2023-02-28T07:01:42;16.20;56.30
37806;DHT22;25082;50.870;0.022;2023-02-28T07:04:08;16.20;56.30
37806;DHT22;25082;50.870;0.022;2023-02-28T07:06:34;16.20;56.40
37806;DHT22;25082;50.870;0.022;2023-02-28T07:09:00;16.20;56.30
37806;DHT22;25082;50.870;0.022;2023-02-28T07:11:27;16.20;56.40
37806;DHT22;25082;50.870;0.022;2023-02-28T07:13:54;16.20;56.50
37806;DHT22;25082;50.870;0.022;2023-02-28T07:16:21;16.20;56.30
37806;DHT22;25082;50.870;0.022;2023-02-28T07:18:47;16.20;56.30
37806;DHT22;25082;50.870;0.022;2023-02-28T07:21:12;16.10;56.40
37806;DHT22;25082;50.870;0.022;2023-02-28T07:23:39;16.10;56.30
37806;DHT22;25082;50.870;0.022;2023-02-28T07:26:06;16.10;56.30
37806;DHT22;25082;50.870;0.022;2023-02-28T07:28:32;16.10;56.30
37806;DHT22;25082;50.870;0.022;2023-02-28T07:31:03;16.10;56.30
37806;DHT22;25082;50.870;0.022;2023-02-28T07:33:29;16.10;56.40
37806;DHT22;25082;50.870;0.022;2023-02-28T07:36:03;16.10;56.40
37806;DHT22;25082;50.870;0.022;2023-02-28T07:38:30;16.10;56.40
37806;DHT22;25082;50.870;0.022;2023-02-28T07:40:55;16.10;56.40
37806;DHT22;25082;50.870;0.022;2023-02-28T07:43:21;16.10;56.30
37806;DHT22;25082;50.870;0.022;2023-02-28T07:45:47;16.10;56.30
37806;DHT22;25082;50.870;0.022;2023-02-28T07:48:12;16.10;56.40
37806;DHT22;25082;50.870;0.022;2023-02-28T07:50:38;16.10;56.30
37806;DHT22;25082;50.870;0.022;2023-02-28T07:53:04;16.00;56.40
37806;DHT22;25082;50.870;0.022;2023-02-28T07:55:29;16.00;56.30
37806;DHT22;25082;50.870;0.022;2023-02-28T07:57:57;16.00;56.20
37806;DHT22;25082;50.870;0.022;2023-02-28T08:00:23;16.00;56.30
37806;DHT22;25082;50.870;0.022;2023-02-28T08:02:49;16.00;56.30
37806;DHT22;25082;50.870;0.022;2023-02-28T08:05:15;16.00;56.30
37806;DHT22;25082;50.870;0.022;2023-02-28T08:07:41;16.00;56.40
37806;DHT22;25082;50.870;0.022;2023-02-28T08:10:07;16.00;56.40
37806;DHT22;25082;50.870;0.022;2023-02-28T08:12:35;16.00;56.40
37806;DHT22;25082;50.870;0.022;2023-02-28T08:15:01;16.00;56.40
37806;DHT22;25082;50.870;0.022;2023-02-28T08:17:27;16.00;57.10
37806;DHT22;25082;50.870;0.022;2023-02-28T08:19:53;16.00;56.50
37806;DHT22;25082;50.870;0.022;2023-02-28T08:22:18;16.00;56.50
37806;DHT22;25082;50.870;0.022;2023-02-28T08:24:44;15.90;56.50
37806;DHT22;25082;50.870;0.022;2023-02-28T08:27:10;15.90;56.40
37806;DHT22;25082;50.870;0.022;2023-02-28T08:29:39;15.90;56.40
37806;DHT22;25082;50.870;0.022;2023-02-28T08:32:06;16.00;56.40
37806;DHT22;25082;50.870;0.022;2023-02-28T08:34:32;15.90;56.40
37806;DHT22;25082;50.870;0.022;2023-02-28T08:36:58;15.90;56.30
37806;DHT22;25082;50.870;0.022;2023-02-28T08:39:24;15.90;56.20
37806;DHT22;25082;50.870;0.022;2023-02-28T08:41:49;15.90;56.30
37806;DHT22;25082;50.870;0.022;2023-02-28T08:44:15;15.90;56.30
37806;DHT22;25082;50.870;0.022;2023-02-28T08:46:41;15.90;56.30
37806;DHT22;25082;50.870;0.022;2023-02-28T08:49:06;15.90;56.30
37806;DHT22;25082;50.870;0.022;2023-02-28T08:51:32;15.90;56.10
37806;DHT22;25082;50.870;0.022;2023-02-28T08:53:59;15.90;55.90
37806;DHT22;25082;50.870;0.022;2023-02-28T08:56:26;15.90;55.90
37806;DHT22;25082;50.870;0.022;2023-02-28T08:58:55;16.00;55.70
37806;DHT22;25082;50.870;0.022;2023-02-28T09:01:31;16.00;55.60
37806;DHT22;25082;50.870;0.022;2023-02-28T09:03:57;16.00;55.50
37806;DHT22;25082;50.870;0.022;2023-02-28T09:06:25;16.10;55.50
37806;DHT22;25082;50.870;0.022;2023-02-28T09:08:51;16.10;55.40
37806;DHT22;25082;50.870;0.022;2023-02-28T09:11:17;16.10;55.40
37806;DHT22;25082;50.870;0.022;2023-02-28T09:13:45;16.20;55.40
37806;DHT22;25082;50.870;0.022;2023-02-28T09:16:13;16.20;55.40
37806;DHT22;25082;50.870;0.022;2023-02-28T09:18:39;16.20;55.50
37806;DHT22;25082;50.870;0.022;2023-02-28T09:21:07;16.20;55.50
37806;DHT22;25082;50.870;0.022;2023-02-28T09:23:34;16.30;55.60
37806;DHT22;25082;50.870;0.022;2023-02-28T09:26:00;16.30;55.60
37806;DHT22;25082;50.870;0.022;2023-02-28T09:28:26;16.30;55.60
37806;DHT22;25082;50.870;0.022;2023-02-28T09:30:53;16.30;55.60
37806;DHT22;25082;50.870;0.022;2023-02-28T09:33:20;16.40;55.70
37806;DHT22;25082;50.870;0.022;2023-02-28T09:35:47;16.40;55.70
37806;DHT22;25082;50.870;0.022;2023-02-28T09:38:13;16.40;55.70
37806;DHT22;25082;50.870;0.022;2023-02-28T09:40:50;16.40;55.80
37806;DHT22;25082;50.870;0.022;2023-02-28T09:43:19;16.50;56.10
37806;DHT22;25082;50.870;0.022;2023-02-28T09:45:54;16.50;56.30
37806;DHT22;25082;50.870;0.022;2023-02-28T09:48:32;16.50;56.80
37806;DHT22;25082;50.870;0.022;2023-02-28T09:51:09;16.50;56.80
37806;DHT22;25082;50.870;0.022;2023-02-28T09:53:38;16.50;57.20
37806;DHT22;25082;50.870;0.022;2023-02-28T09:56:11;16.60;57.50
37806;DHT22;25082;50.870;0.022;2023-02-28T09:58:46;16.60;57.70
37806;DHT22;25082;50.870;0.022;2023-02-28T10:01:31;16.60;57.70
37806;DHT22;25082;50.870;0.022;2023-02-28T10:06:53;16.70;57.70
37806;DHT22;25082;50.870;0.022;2023-02-28T10:11:52;16.80;57.80
37806;DHT22;25082;50.870;0.022;2023-02-28T10:14:19;16.80;57.80
37806;DHT22;25082;50.870;0.022;2023-02-28T10:19:26;16.80;58.00
37806;DHT22;25082;50.870;0.022;2023-02-28T10:24:53;16.80;58.10
37806;DHT22;25082;50.870;0.022;2023-02-28T10:27:24;16.80;58.20
37806;DHT22;25082;50.870;0.022;2023-02-28T10:29:52;16.90;58.40
37806;DHT22;25082;50.870;0.022;2023-02-28T10:32:25;16.90;58.60
37806;DHT22;25082;50.870;0.022;2023-02-28T10:37:37;16.80;57.70
37806;DHT22;25082;50.870;0.022;2023-02-28T10:40:06;16.80;57.60
37806;DHT22;25082;50.870;0.022;2023-02-28T10:42:32;16.80;57.80
37806;DHT22;25082;50.870;0.022;2023-02-28T10:45:30;16.80;58.10
37806;DHT22;25082;50.870;0.022;2023-02-28T10:48:00;16.90;58.50
37806;DHT22;25082;50.870;0.022;2023-02-28T10:50:30;16.90;58.80
37806;DHT22;25082;50.870;0.022;2023-02-28T10:53:07;17.00;58.80
37806;DHT22;25082;50.870;0.022;2023-02-28T10:55:33;17.00;58.90
37806;DHT22;25082;50.870;0.022;2023-02-28T10:57:59;17.00;58.90
37806;DHT22;25082;50.870;0.022;2023-02-28T11:00:25;17.00;59.00
37806;DHT22;25082;50.870;0.022;2023-02-28T11:02:56;17.00;59.00
37806;DHT22;25082;50.870;0.022;2023-02-28T11:05:32;17.10;59.00
37806;DHT22;25082;50.870;0.022;2023-02-28T11:08:13;17.10;59.00
37806;DHT22;25082;50.870;0.022;2023-02-28T11:10:54;17.10;59.00
37806;DHT22;25082;50.870;0.022;2023-02-28T11:13:26;17.10;59.00
37806;DHT22;25082;50.870;0.022;2023-02-28T11:15:59;17.10;59.10
37806;DHT22;25082;50.870;0.022;2023-02-28T11:18:40;17.10;59.00
37806;DHT22;25082;50.870;0.022;2023-02-28T11:21:07;17.10;59.00
37806;DHT22;25082;50.870;0.022;2023-02-28T11:23:36;17.20;59.10
37806;DHT22;25082;50.870;0.022;2023-02-28T11:26:03;17.20;59.00
37806;DHT22;25082;50.870;0.022;2023-02-28T11:28:37;17.20;58.90
37806;DHT22;25082;50.870;0.022;2023-02-28T11:33:53;17.20;58.70
37806;DHT22;25082;50.870;0.022;2023-02-28T11:36:30;17.20;58.60
37806;DHT22;25082;50.870;0.022;2023-02-28T11:39:01;17.20;58.70
37806;DHT22;25082;50.870;0.022;2023-02-28T11:41:58;17.20;58.80
37806;DHT22;25082;50.870;0.022;2023-02-28T11:53:16;17.20;59.00
37806;DHT22;25082;50.870;0.022;2023-02-28T12:04:24;17.30;59.00
37806;DHT22;25082;50.870;0.022;2023-02-28T12:20:39;17.30;59.20
37806;DHT22;25082;50.870;0.022;2023-02-28T12:23:21;17.40;59.30
37806;DHT22;25082;50.870;0.022;2023-02-28T12:28:26;17.40;59.30
37806;DHT22;25082;50.870;0.022;2023-02-28T12:31:04;17.30;59.10
37806;DHT22;25082;50.870;0.022;2023-02-28T12:33:36;17.40;59.20
37806;DHT22;25082;50.870;0.022;2023-02-28T12:36:08;17.40;59.20
37806;DHT22;25082;50.870;0.022;2023-02-28T12:38:48;17.40;59.20
37806;DHT22;25082;50.870;0.022;2023-02-28T12:41:26;17.40;59.20
37806;DHT22;25082;50.870;0.022;2023-02-28T12:44:13;17.40;59.10
37806;DHT22;25082;50.870;0.022;2023-02-28T12:46:50;17.50;59.20
37806;DHT22;25082;50.870;0.022;2023-02-28T12:49:25;17.40;59.10
37806;DHT22;25082;50.870;0.022;2023-02-28T12:51:53;17.40;59.10
37806;DHT22;25082;50.870;0.022;2023-02-28T12:54:26;17.50;59.10
37806;DHT22;25082;50.870;0.022;2023-02-28T12:57:13;17.40;59.10
37806;DHT22;25082;50.870;0.022;2023-02-28T12:59:55;17.40;59.10
37806;DHT22;25082;50.870;0.022;2023-02-28T13:02:33;17.50;59.10
37806;DHT22;25082;50.870;0.022;2023-02-28T13:05:29;17.50;59.10
37806;DHT22;25082;50.870;0.022;2023-02-28T13:08:01;17.40;59.10
37806;DHT22;25082;50.870;0.022;2023-02-28T13:10:48;17.50;59.00
37806;DHT22;25082;50.870;0.022;2023-02-28T13:13:25;17.50;58.80
37806;DHT22;25082;50.870;0.022;2023-02-28T13:16:11;17.40;58.70
37806;DHT22;25082;50.870;0.022;2023-02-28T13:18:39;17.50;58.80
37806;DHT22;25082;50.870;0.022;2023-02-28T13:21:10;17.50;58.80
37806;DHT22;25082;50.870;0.022;2023-02-28T13:34:34;17.40;58.30
37806;DHT22;25082;50.870;0.022;2023-02-28T13:42:34;17.40;58.40
37806;DHT22;25082;50.870;0.022;2023-02-28T13:50:37;17.50;58.60
37806;DHT22;25082;50.870;0.022;2023-02-28T14:07:52;17.50;58.30
37806;DHT22;25082;50.870;0.022;2023-02-28T14:10:28;17.50;58.10
37806;DHT22;25082;50.870;0.022;2023-02-28T14:13:03;17.50;58.80
37806;DHT22;25082;50.870;0.022;2023-02-28T14:20:42;17.50;64.00
37806;DHT22;25082;50.870;0.022;2023-02-28T14:31:52;17.50;61.00
37806;DHT22;25082;50.870;0.022;2023-02-28T14:34:35;17.50;60.60
37806;DHT22;25082;50.870;0.022;2023-02-28T14:37:03;17.60;60.60
37806;DHT22;25082;50.870;0.022;2023-02-28T14:39:31;17.60;60.50
37806;DHT22;25082;50.870;0.022;2023-02-28T14:41:58;17.60;60.20
37806;DHT22;25082;50.870;0.022;2023-02-28T14:44:30;17.60;60.00
37806;DHT22;25082;50.870;0.022;2023-02-28T14:47:01;17.60;60.00
37806;DHT22;25082;50.870;0.022;2023-02-28T14:49:37;17.70;60.10
37806;DHT22;25082;50.870;0.022;2023-02-28T14:54:38;17.70;60.00
37806;DHT22;25082;50.870;0.022;2023-02-28T14:57:05;17.70;60.00
37806;DHT22;25082;50.870;0.022;2023-02-28T14:59:33;17.70;59.90
37806;DHT22;25082;50.870;0.022;2023-02-28T15:02:21;17.80;60.00
37806;DHT22;25082;50.870;0.022;2023-02-28T15:05:01;17.80;59.90
37806;DHT22;25082;50.870;0.022;2023-02-28T15:07:27;17.80;59.80
37806;DHT22;25082;50.870;0.022;2023-02-28T15:10:18;17.80;59.70
37806;DHT22;25082;50.870;0.022;2023-02-28T15:12:55;17.80;59.80
37806;DHT22;25082;50.870;0.022;2023-02-28T15:20:52;17.90;59.80
37806;DHT22;25082;50.870;0.022;2023-02-28T15:23:19;17.90;59.70
37806;DHT22;25082;50.870;0.022;2023-02-28T15:25:46;17.90;59.60
37806;DHT22;25082;50.870;0.022;2023-02-28T15:28:16;17.90;59.70
37806;DHT22;25082;50.870;0.022;2023-02-28T15:31:00;17.90;60.20
37806;DHT22;25082;50.870;0.022;2023-02-28T15:33:29;17.90;59.50
37806;DHT22;25082;50.870;0.022;2023-02-28T15:36:14;18.00;59.50
37806;DHT22;25082;50.870;0.022;2023-02-28T15:38:40;18.00;59.50
37806;DHT22;25082;50.870;0.022;2023-02-28T15:41:25;18.00;59.40
37806;DHT22;25082;50.870;0.022;2023-02-28T15:44:27;18.00;59.40
37806;DHT22;25082;50.870;0.022;2023-02-28T15:47:05;18.00;59.40
37806;DHT22;25082;50.870;0.022;2023-02-28T15:52:24;17.90;59.20
37806;DHT22;25082;50.870;0.022;2023-02-28T15:54:51;18.00;59.30
37806;DHT22;25082;50.870;0.022;2023-02-28T15:57:20;18.00;59.40
37806;DHT22;25082;50.870;0.022;2023-02-28T15:59:54;18.00;59.40
37806;DHT22;25082;50.870;0.022;2023-02-28T16:02:30;17.90;59.40
37806;DHT22;25082;50.870;0.022;2023-02-28T16:05:00;18.00;59.50
37806;DHT22;25082;50.870;0.022;2023-02-28T16:07:27;18.00;59.50
37806;DHT22;25082;50.870;0.022;2023-02-28T16:09:53;18.00;59.40
37806;DHT22;25082;50.870;0.022;2023-02-28T16:12:20;18.00;59.40
37806;DHT22;25082;50.870;0.022;2023-02-28T16:14:52;18.00;59.40
37806;DHT22;25082;50.870;0.022;2023-02-28T16:17:26;18.00;59.40
37806;DHT22;25082;50.870;0.022;2023-02-28T16:19:53;18.00;59.50
37806;DHT22;25082;50.870;0.022;2023-02-28T16:22:19;18.00;59.50
37806;DHT22;25082;50.870;0.022;2023-02-28T16:24:45;18.00;59.50
37806;DHT22;25082;50.870;0.022;2023-02-28T16:27:18;18.00;59.50
37806;DHT22;25082;50.870;0.022;2023-02-28T16:29:45;18.00;59.50
37806;DHT22;25082;50.870;0.022;2023-02-28T16:32:14;18.00;59.40
37806;DHT22;25082;50.870;0.022;2023-02-28T16:34:40;18.00;59.40
37806;DHT22;25082;50.870;0.022;2023-02-28T16:37:12;18.00;59.40
37806;DHT22;25082;50.870;0.022;2023-02-28T16:39:38;18.00;59.40
37806;DHT22;25082;50.870;0.022;2023-02-28T16:42:04;18.10;59.50
37806;DHT22;25082;50.870;0.022;2023-02-28T16:44:33;18.10;59.50
37806;DHT22;25082;50.870;0.022;2023-02-28T16:47:03;18.00;59.50
37806;DHT22;25082;50.870;0.022;2023-02-28T16:49:29;18.00;59.50
37806;DHT22;25082;50.870;0.022;2023-02-28T16:51:55;18.10;59.60
37806;DHT22;25082;50.870;0.022;2023-02-28T16:54:21;18.10;59.60
37806;DHT22;25082;50.870;0.022;2023-02-28T16:56:48;18.10;59.60
37806;DHT22;25082;50.870;0.022;2023-02-28T16:59:19;18.10;59.60
37806;DHT22;25082;50.870;0.022;2023-02-28T17:01:45;18.10;59.60
37806;DHT22;25082;50.870;0.022;2023-02-28T17:04:11;18.00;57.60
37806;DHT22;25082;50.870;0.022;2023-02-28T17:06:37;18.00;58.70
37806;DHT22;25082;50.870;0.022;2023-02-28T17:09:03;18.00;59.00
37806;DHT22;25082;50.870;0.022;2023-02-28T17:11:29;18.00;59.00
37806;DHT22;25082;50.870;0.022;2023-02-28T17:13:55;18.00;59.00
37806;DHT22;25082;50.870;0.022;2023-02-28T17:16:32;18.00;59.50
37806;DHT22;25082;50.870;0.022;2023-02-28T17:19:01;18.00;58.90
37806;DHT22;25082;50.870;0.022;2023-02-28T17:21:27;18.00;58.90
37806;DHT22;25082;50.870;0.022;2023-02-28T17:23:53;18.00;58.90
37806;DHT22;25082;50.870;0.022;2023-02-28T17:26:20;18.10;58.90
37806;DHT22;25082;50.870;0.022;2023-02-28T17:28:48;18.10;58.90
37806;DHT22;25082;50.870;0.022;2023-02-28T17:31:14;18.10;58.90
37806;DHT22;25082;50.870;0.022;2023-02-28T17:33:40;18.10;58.90
37806;DHT22;25082;50.870;0.022;2023-02-28T17:36:09;18.10;58.80
37806;DHT22;25082;50.870;0.022;2023-02-28T17:38:35;18.10;58.90
37806;DHT22;25082;50.870;0.022;2023-02-28T17:41:01;18.10;58.90
37806;DHT22;25082;50.870;0.022;2023-02-28T17:43:27;18.10;58.90
37806;DHT22;25082;50.870;0.022;2023-02-28T17:45:54;18.10;59.00
37806;DHT22;25082;50.870;0.022;2023-02-28T17:48:20;18.20;59.60
37806;DHT22;25082;50.870;0.022;2023-02-28T17:50:46;18.10;59.00
37806;DHT22;25082;50.870;0.022;2023-02-28T17:53:11;18.10;59.00
37806;DHT22;25082;50.870;0.022;2023-02-28T17:55:37;18.20;59.10
37806;DHT22;25082;50.870;0.022;2023-02-28T17:58:04;18.20;59.10
37806;DHT22;25082;50.870;0.022;2023-02-28T18:00:30;18.20;59.00
37806;DHT22;25082;50.870;0.022;2023-02-28T18:02:59;18.20;59.00
37806;DHT22;25082;50.870;0.022;2023-02-28T18:05:24;18.20;59.00
37806;DHT22;25082;50.870;0.022;2023-02-28T18:07:51;18.10;58.90
37806;DHT22;25082;50.870;0.022;2023-02-28T18:10:19;18.10;58.90
37806;DHT22;25082;50.870;0.022;2023-02-28T18:12:50;18.20;59.00
37806;DHT22;25082;50.870;0.022;2023-02-28T18:15:17;18.20;59.00
37806;DHT22;25082;50.870;0.022;2023-02-28T18:17:45;18.20;59.00
37806;DHT22;25082;50.870;0.022;2023-02-28T18:20:11;18.20;59.10
37806;DHT22;25082;50.870;0.022;2023-02-28T18:22:39;18.20;59.00
37806;DHT22;25082;50.870;0.022;2023-02-28T18:25:05;18.20;59.00